sensor_id;sensor_type;location;lat;lon;timestamp;P1;durP1;ratioP1;P2;durP2;ratioP2
54121;SDS011;40029;58.708;50.190;2024-01-11T00:02:03;10.40;;;4.60;;
54121;SDS011;40029;58.708;50.190;2024-01-11T00:04:35;7.47;;;2.77;;
54121;SDS011;40029;58.708;50.190;2024-01-11T00:07:06;10.47;;;2.70;;
54121;SDS011;40029;58.708;50.190;2024-01-11T00:09:39;8.20;;;2.87;;
54121;SDS011;40029;58.708;50.190;2024-01-11T00:12:11;6.57;;;2.37;;
54121;SDS011;40029;58.708;50.190;2024-01-11T00:14:42;4.17;;;1.83;;
54121;SDS011;40029;58.708;50.190;2024-01-11T00:17:13;3.47;;;1.63;;
54121;SDS011;40029;58.708;50.190;2024-01-11T00:19:46;5.33;;;1.53;;
54121;SDS011;40029;58.708;50.190;2024-01-11T00:22:17;7.20;;;1.83;;
54121;SDS011;40029;58.708;50.190;2024-01-11T00:24:48;8.83;;;2.33;;
54121;SDS011;40029;58.708;50.190;2024-01-11T00:27:19;4.27;;;2.00;;
54121;SDS011;40029;58.708;50.190;2024-01-11T00:29:51;6.93;;;2.37;;
54121;SDS011;40029;58.708;50.190;2024-01-11T00:32:40;8.90;;;2.70;;
54121;SDS011;40029;58.708;50.190;2024-01-11T00:35:11;4.07;;;1.83;;
54121;SDS011;40029;58.708;50.190;2024-01-11T00:37:43;4.83;;;1.73;;
54121;SDS011;40029;58.708;50.190;2024-01-11T00:40:32;2.80;;;1.47;;
54121;SDS011;40029;58.708;50.190;2024-01-11T00:43:04;2.93;;;1.57;;
54121;SDS011;40029;58.708;50.190;2024-01-11T00:45:35;4.23;;;2.00;;
54121;SDS011;40029;58.708;50.190;2024-01-11T00:48:06;14.87;;;1.40;;
54121;SDS011;40029;58.708;50.190;2024-01-11T00:50:37;5.83;;;1.67;;
54121;SDS011;40029;58.708;50.190;2024-01-11T00:53:27;6.17;;;2.37;;
54121;SDS011;40029;58.708;50.190;2024-01-11T00:56:19;1.77;;;1.40;;
54121;SDS011;40029;58.708;50.190;2024-01-11T00:58:52;5.17;;;2.37;;
54121;SDS011;40029;58.708;50.190;2024-01-11T01:01:48;7.10;;;2.07;;
54121;SDS011;40029;58.708;50.190;2024-01-11T01:04:20;7.80;;;3.43;;
54121;SDS011;40029;58.708;50.190;2024-01-11T01:06:51;3.43;;;2.33;;
54121;SDS011;40029;58.708;50.190;2024-01-11T01:09:22;9.70;;;2.90;;
54121;SDS011;40029;58.708;50.190;2024-01-11T01:11:54;4.10;;;1.47;;
54121;SDS011;40029;58.708;50.190;2024-01-11T01:14:25;2.90;;;1.57;;
54121;SDS011;40029;58.708;50.190;2024-01-11T01:16:56;10.13;;;1.90;;
54121;SDS011;40029;58.708;50.190;2024-01-11T01:19:27;4.50;;;1.23;;
54121;SDS011;40029;58.708;50.190;2024-01-11T01:21:58;5.53;;;2.03;;
54121;SDS011;40029;58.708;50.190;2024-01-11T01:24:48;8.43;;;2.33;;
54121;SDS011;40029;58.708;50.190;2024-01-11T01:27:19;4.20;;;1.47;;
54121;SDS011;40029;58.708;50.190;2024-01-11T01:30:09;3.57;;;1.60;;
54121;SDS011;40029;58.708;50.190;2024-01-11T01:32:40;15.97;;;1.50;;
54121;SDS011;40029;58.708;50.190;2024-01-11T01:35:11;4.70;;;1.83;;
54121;SDS011;40029;58.708;50.190;2024-01-11T01:37:42;9.93;;;2.70;;
54121;SDS011;40029;58.708;50.190;2024-01-11T01:40:14;3.27;;;1.40;;
54121;SDS011;40029;58.708;50.190;2024-01-11T01:43:06;3.83;;;1.50;;
54121;SDS011;40029;58.708;50.190;2024-01-11T01:45:41;1.60;;;0.97;;
54121;SDS011;40029;58.708;50.190;2024-01-11T01:48:12;4.47;;;1.43;;
54121;SDS011;40029;58.708;50.190;2024-01-11T01:50:43;4.47;;;1.00;;
54121;SDS011;40029;58.708;50.190;2024-01-11T01:53:21;2.80;;;1.60;;
54121;SDS011;40029;58.708;50.190;2024-01-11T01:55:53;3.03;;;1.27;;
54121;SDS011;40029;58.708;50.190;2024-01-11T01:58:25;6.30;;;1.70;;
54121;SDS011;40029;58.708;50.190;2024-01-11T02:00:56;7.00;;;1.50;;
54121;SDS011;40029;58.708;50.190;2024-01-11T02:03:28;6.33;;;2.33;;
54121;SDS011;40029;58.708;50.190;2024-01-11T02:06:01;4.78;;;2.97;;
54121;SDS011;40029;58.708;50.190;2024-01-11T02:08:34;9.27;;;3.13;;
54121;SDS011;40029;58.708;50.190;2024-01-11T02:11:07;6.30;;;2.63;;
54121;SDS011;40029;58.708;50.190;2024-01-11T02:13:38;8.30;;;2.17;;
54121;SDS011;40029;58.708;50.190;2024-01-11T02:16:11;4.77;;;1.70;;
54121;SDS011;40029;58.708;50.190;2024-01-11T02:18:44;8.05;;;3.30;;
54121;SDS011;40029;58.708;50.190;2024-01-11T02:21:15;10.27;;;2.27;;
54121;SDS011;40029;58.708;50.190;2024-01-11T02:23:57;7.47;;;1.73;;
54121;SDS011;40029;58.708;50.190;2024-01-11T02:27:04;3.80;;;1.23;;
54121;SDS011;40029;58.708;50.190;2024-01-11T02:29:35;6.50;;;2.47;;
54121;SDS011;40029;58.708;50.190;2024-01-11T02:32:07;6.60;;;2.53;;
54121;SDS011;40029;58.708;50.190;2024-01-11T02:34:39;3.70;;;2.17;;
54121;SDS011;40029;58.708;50.190;2024-01-11T02:37:10;6.80;;;1.97;;
54121;SDS011;40029;58.708;50.190;2024-01-11T02:39:42;8.87;;;2.23;;
54121;SDS011;40029;58.708;50.190;2024-01-11T02:42:13;1.93;;;1.50;;
54121;SDS011;40029;58.708;50.190;2024-01-11T02:44:44;4.70;;;2.47;;
54121;SDS011;40029;58.708;50.190;2024-01-11T02:47:15;3.87;;;1.60;;
54121;SDS011;40029;58.708;50.190;2024-01-11T02:49:47;4.63;;;1.93;;
54121;SDS011;40029;58.708;50.190;2024-01-11T02:52:18;2.80;;;1.70;;
54121;SDS011;40029;58.708;50.190;2024-01-11T02:54:49;3.70;;;1.70;;
54121;SDS011;40029;58.708;50.190;2024-01-11T02:57:20;9.73;;;2.13;;
54121;SDS011;40029;58.708;50.190;2024-01-11T02:59:51;11.13;;;2.33;;
54121;SDS011;40029;58.708;50.190;2024-01-11T03:02:23;11.97;;;3.47;;
54121;SDS011;40029;58.708;50.190;2024-01-11T03:04:54;14.10;;;2.50;;
54121;SDS011;40029;58.708;50.190;2024-01-11T03:07:25;19.33;;;4.37;;
54121;SDS011;40029;58.708;50.190;2024-01-11T03:09:56;17.23;;;4.83;;
54121;SDS011;40029;58.708;50.190;2024-01-11T03:12:28;12.23;;;4.43;;
54121;SDS011;40029;58.708;50.190;2024-01-11T03:14:59;9.70;;;4.37;;
54121;SDS011;40029;58.708;50.190;2024-01-11T03:17:31;5.37;;;2.23;;
54121;SDS011;40029;58.708;50.190;2024-01-11T03:20:03;4.33;;;2.57;;
54121;SDS011;40029;58.708;50.190;2024-01-11T03:22:35;7.07;;;2.97;;
54121;SDS011;40029;58.708;50.190;2024-01-11T03:25:07;9.57;;;1.60;;
54121;SDS011;40029;58.708;50.190;2024-01-11T03:27:38;3.63;;;1.70;;
54121;SDS011;40029;58.708;50.190;2024-01-11T03:30:28;3.53;;;1.57;;
54121;SDS011;40029;58.708;50.190;2024-01-11T03:32:59;4.47;;;1.93;;
54121;SDS011;40029;58.708;50.190;2024-01-11T03:35:30;2.67;;;1.90;;
54121;SDS011;40029;58.708;50.190;2024-01-11T03:38:02;3.63;;;1.97;;
54121;SDS011;40029;58.708;50.190;2024-01-11T03:40:33;4.03;;;1.47;;
54121;SDS011;40029;58.708;50.190;2024-01-11T03:43:23;3.57;;;1.47;;
54121;SDS011;40029;58.708;50.190;2024-01-11T03:45:54;5.27;;;1.40;;
54121;SDS011;40029;58.708;50.190;2024-01-11T03:48:25;4.27;;;1.80;;
54121;SDS011;40029;58.708;50.190;2024-01-11T03:50:56;2.87;;;1.40;;
54121;SDS011;40029;58.708;50.190;2024-01-11T03:53:28;3.77;;;1.80;;
54121;SDS011;40029;58.708;50.190;2024-01-11T03:55:59;9.27;;;3.27;;
54121;SDS011;40029;58.708;50.190;2024-01-11T03:58:30;21.17;;;2.53;;
54121;SDS011;40029;58.708;50.190;2024-01-11T04:01:02;14.27;;;2.40;;
54121;SDS011;40029;58.708;50.190;2024-01-11T04:03:51;10.00;;;3.20;;
54121;SDS011;40029;58.708;50.190;2024-01-11T04:06:41;11.83;;;3.40;;
54121;SDS011;40029;58.708;50.190;2024-01-11T04:09:12;16.77;;;2.53;;
54121;SDS011;40029;58.708;50.190;2024-01-11T04:11:43;7.67;;;2.43;;
54121;SDS011;40029;58.708;50.190;2024-01-11T04:14:14;6.60;;;2.87;;
54121;SDS011;40029;58.708;50.190;2024-01-11T04:16:46;9.63;;;3.07;;
54121;SDS011;40029;58.708;50.190;2024-01-11T04:19:17;15.20;;;3.87;;
54121;SDS011;40029;58.708;50.190;2024-01-11T04:21:49;10.07;;;3.07;;
54121;SDS011;40029;58.708;50.190;2024-01-11T04:24:20;9.30;;;3.07;;
54121;SDS011;40029;58.708;50.190;2024-01-11T04:26:51;14.23;;;2.50;;
54121;SDS011;40029;58.708;50.190;2024-01-11T04:29:22;8.53;;;1.20;;
54121;SDS011;40029;58.708;50.190;2024-01-11T04:32:12;3.50;;;1.03;;
54121;SDS011;40029;58.708;50.190;2024-01-11T04:35:01;1.83;;;1.60;;
54121;SDS011;40029;58.708;50.190;2024-01-11T04:37:34;7.30;;;2.13;;
54121;SDS011;40029;58.708;50.190;2024-01-11T04:40:06;12.87;;;3.10;;
54121;SDS011;40029;58.708;50.190;2024-01-11T04:42:38;13.73;;;2.93;;
54121;SDS011;40029;58.708;50.190;2024-01-11T04:45:09;9.97;;;2.53;;
54121;SDS011;40029;58.708;50.190;2024-01-11T04:47:40;8.90;;;2.00;;
54121;SDS011;40029;58.708;50.190;2024-01-11T04:50:11;3.43;;;1.43;;
54121;SDS011;40029;58.708;50.190;2024-01-11T04:52:42;7.50;;;1.60;;
54121;SDS011;40029;58.708;50.190;2024-01-11T04:55:14;2.37;;;0.90;;
54121;SDS011;40029;58.708;50.190;2024-01-11T04:57:45;1.33;;;0.77;;
54121;SDS011;40029;58.708;50.190;2024-01-11T05:00:16;6.63;;;1.17;;
54121;SDS011;40029;58.708;50.190;2024-01-11T05:02:48;3.70;;;1.70;;
54121;SDS011;40029;58.708;50.190;2024-01-11T05:05:19;3.53;;;1.33;;
54121;SDS011;40029;58.708;50.190;2024-01-11T05:07:50;3.73;;;1.80;;
54121;SDS011;40029;58.708;50.190;2024-01-11T05:10:21;8.37;;;2.10;;
54121;SDS011;40029;58.708;50.190;2024-01-11T05:12:52;4.40;;;1.93;;
54121;SDS011;40029;58.708;50.190;2024-01-11T05:15:23;4.67;;;2.17;;
54121;SDS011;40029;58.708;50.190;2024-01-11T05:17:55;12.13;;;1.97;;
54121;SDS011;40029;58.708;50.190;2024-01-11T05:20:47;6.33;;;2.70;;
54121;SDS011;40029;58.708;50.190;2024-01-11T05:23:18;2.13;;;1.10;;
54121;SDS011;40029;58.708;50.190;2024-01-11T05:25:50;4.83;;;1.60;;
54121;SDS011;40029;58.708;50.190;2024-01-11T05:28:21;10.17;;;2.27;;
54121;SDS011;40029;58.708;50.190;2024-01-11T05:31:11;8.67;;;2.17;;
54121;SDS011;40029;58.708;50.190;2024-01-11T05:33:44;3.40;;;1.52;;
54121;SDS011;40029;58.708;50.190;2024-01-11T05:36:15;3.60;;;1.67;;
54121;SDS011;40029;58.708;50.190;2024-01-11T05:38:46;5.33;;;1.57;;
54121;SDS011;40029;58.708;50.190;2024-01-11T05:41:36;4.00;;;1.63;;
54121;SDS011;40029;58.708;50.190;2024-01-11T05:44:25;2.23;;;1.10;;
54121;SDS011;40029;58.708;50.190;2024-01-11T05:46:56;2.30;;;1.10;;
54121;SDS011;40029;58.708;50.190;2024-01-11T05:49:28;2.03;;;0.83;;
54121;SDS011;40029;58.708;50.190;2024-01-11T05:51:59;3.33;;;1.30;;
54121;SDS011;40029;58.708;50.190;2024-01-11T05:54:30;4.20;;;1.20;;
54121;SDS011;40029;58.708;50.190;2024-01-11T05:57:20;5.63;;;1.30;;
54121;SDS011;40029;58.708;50.190;2024-01-11T05:59:51;4.70;;;1.90;;
54121;SDS011;40029;58.708;50.190;2024-01-11T06:02:22;6.70;;;1.20;;
54121;SDS011;40029;58.708;50.190;2024-01-11T06:04:53;1.97;;;1.00;;
54121;SDS011;40029;58.708;50.190;2024-01-11T06:07:24;2.33;;;1.00;;
54121;SDS011;40029;58.708;50.190;2024-01-11T06:09:56;3.03;;;1.37;;
54121;SDS011;40029;58.708;50.190;2024-01-11T06:12:27;2.70;;;0.97;;
54121;SDS011;40029;58.708;50.190;2024-01-11T06:14:58;2.97;;;1.63;;
54121;SDS011;40029;58.708;50.190;2024-01-11T06:17:29;1.67;;;1.50;;
54121;SDS011;40029;58.708;50.190;2024-01-11T06:20:00;3.20;;;0.80;;
54121;SDS011;40029;58.708;50.190;2024-01-11T06:22:35;4.97;;;2.30;;
54121;SDS011;40029;58.708;50.190;2024-01-11T06:25:06;3.10;;;1.47;;
54121;SDS011;40029;58.708;50.190;2024-01-11T06:27:38;8.90;;;2.57;;
54121;SDS011;40029;58.708;50.190;2024-01-11T06:30:09;5.00;;;1.50;;
54121;SDS011;40029;58.708;50.190;2024-01-11T06:32:41;3.47;;;1.30;;
54121;SDS011;40029;58.708;50.190;2024-01-11T06:35:12;5.67;;;1.13;;
54121;SDS011;40029;58.708;50.190;2024-01-11T06:37:44;3.07;;;1.70;;
54121;SDS011;40029;58.708;50.190;2024-01-11T06:40:15;5.40;;;1.90;;
54121;SDS011;40029;58.708;50.190;2024-01-11T06:43:04;4.40;;;1.50;;
54121;SDS011;40029;58.708;50.190;2024-01-11T06:45:35;5.30;;;0.93;;
54121;SDS011;40029;58.708;50.190;2024-01-11T06:48:07;3.07;;;1.07;;
54121;SDS011;40029;58.708;50.190;2024-01-11T06:50:57;1.27;;;1.03;;
54121;SDS011;40029;58.708;50.190;2024-01-11T06:53:29;1.73;;;0.80;;
54121;SDS011;40029;58.708;50.190;2024-01-11T06:56:00;4.17;;;1.60;;
54121;SDS011;40029;58.708;50.190;2024-01-11T06:58:31;1.57;;;1.40;;
54121;SDS011;40029;58.708;50.190;2024-01-11T07:01:03;8.10;;;2.37;;
54121;SDS011;40029;58.708;50.190;2024-01-11T07:03:35;3.57;;;2.13;;
54121;SDS011;40029;58.708;50.190;2024-01-11T07:06:07;6.43;;;1.97;;
54121;SDS011;40029;58.708;50.190;2024-01-11T07:08:38;5.20;;;1.90;;
54121;SDS011;40029;58.708;50.190;2024-01-11T07:11:28;3.13;;;2.63;;
54121;SDS011;40029;58.708;50.190;2024-01-11T07:13:59;7.00;;;2.80;;
54121;SDS011;40029;58.708;50.190;2024-01-11T07:16:30;12.20;;;5.40;;
54121;SDS011;40029;58.708;50.190;2024-01-11T07:19:01;6.90;;;2.10;;
54121;SDS011;40029;58.708;50.190;2024-01-11T07:21:33;9.73;;;4.20;;
54121;SDS011;40029;58.708;50.190;2024-01-11T07:24:04;5.80;;;4.30;;
54121;SDS011;40029;58.708;50.190;2024-01-11T07:26:35;11.00;;;5.53;;
54121;SDS011;40029;58.708;50.190;2024-01-11T07:29:07;10.50;;;5.60;;
54121;SDS011;40029;58.708;50.190;2024-01-11T07:31:57;10.00;;;5.17;;
54121;SDS011;40029;58.708;50.190;2024-01-11T07:34:28;13.63;;;7.30;;
54121;SDS011;40029;58.708;50.190;2024-01-11T07:36:59;6.77;;;4.90;;
54121;SDS011;40029;58.708;50.190;2024-01-11T07:39:49;16.87;;;7.10;;
54121;SDS011;40029;58.708;50.190;2024-01-11T07:42:20;15.83;;;6.80;;
54121;SDS011;40029;58.708;50.190;2024-01-11T07:44:51;11.70;;;6.53;;
54121;SDS011;40029;58.708;50.190;2024-01-11T07:47:22;13.30;;;7.70;;
54121;SDS011;40029;58.708;50.190;2024-01-11T07:49:55;10.13;;;6.40;;
54121;SDS011;40029;58.708;50.190;2024-01-11T07:52:26;10.70;;;4.87;;
54121;SDS011;40029;58.708;50.190;2024-01-11T07:54:57;10.63;;;5.27;;
54121;SDS011;40029;58.708;50.190;2024-01-11T07:57:30;13.43;;;6.97;;
54121;SDS011;40029;58.708;50.190;2024-01-11T08:00:02;11.50;;;5.70;;
54121;SDS011;40029;58.708;50.190;2024-01-11T08:02:44;10.17;;;6.20;;
54121;SDS011;40029;58.708;50.190;2024-01-11T08:05:15;10.57;;;6.10;;
54121;SDS011;40029;58.708;50.190;2024-01-11T08:07:46;13.37;;;7.60;;
54121;SDS011;40029;58.708;50.190;2024-01-11T08:10:17;9.07;;;4.87;;
54121;SDS011;40029;58.708;50.190;2024-01-11T08:13:07;12.20;;;4.67;;
54121;SDS011;40029;58.708;50.190;2024-01-11T08:15:40;9.50;;;3.20;;
54121;SDS011;40029;58.708;50.190;2024-01-11T08:18:12;9.63;;;4.03;;
54121;SDS011;40029;58.708;50.190;2024-01-11T08:20:44;6.20;;;3.10;;
54121;SDS011;40029;58.708;50.190;2024-01-11T08:23:33;8.23;;;4.70;;
54121;SDS011;40029;58.708;50.190;2024-01-11T08:26:05;23.17;;;5.40;;
54121;SDS011;40029;58.708;50.190;2024-01-11T08:28:36;12.27;;;6.20;;
54121;SDS011;40029;58.708;50.190;2024-01-11T08:31:07;6.67;;;3.83;;
54121;SDS011;40029;58.708;50.190;2024-01-11T08:33:39;17.20;;;6.80;;
54121;SDS011;40029;58.708;50.190;2024-01-11T08:36:10;11.10;;;6.87;;
54121;SDS011;40029;58.708;50.190;2024-01-11T08:38:42;12.23;;;2.87;;
54121;SDS011;40029;58.708;50.190;2024-01-11T08:41:13;5.73;;;2.23;;
54121;SDS011;40029;58.708;50.190;2024-01-11T08:43:44;6.57;;;3.20;;
54121;SDS011;40029;58.708;50.190;2024-01-11T08:46:23;10.30;;;4.75;;
54121;SDS011;40029;58.708;50.190;2024-01-11T08:49:15;8.07;;;4.13;;
54121;SDS011;40029;58.708;50.190;2024-01-11T08:51:46;6.87;;;2.20;;
54121;SDS011;40029;58.708;50.190;2024-01-11T08:54:36;6.20;;;2.70;;
54121;SDS011;40029;58.708;50.190;2024-01-11T08:57:08;3.37;;;1.87;;
54121;SDS011;40029;58.708;50.190;2024-01-11T08:59:57;5.53;;;2.03;;
54121;SDS011;40029;58.708;50.190;2024-01-11T09:02:28;4.07;;;2.10;;
54121;SDS011;40029;58.708;50.190;2024-01-11T09:04:59;4.80;;;2.43;;
54121;SDS011;40029;58.708;50.190;2024-01-11T09:07:30;4.60;;;2.10;;
54121;SDS011;40029;58.708;50.190;2024-01-11T09:10:03;4.43;;;1.70;;
54121;SDS011;40029;58.708;50.190;2024-01-11T09:12:35;12.50;;;2.90;;
54121;SDS011;40029;58.708;50.190;2024-01-11T09:15:07;6.50;;;1.97;;
54121;SDS011;40029;58.708;50.190;2024-01-11T09:17:38;2.67;;;1.30;;
54121;SDS011;40029;58.708;50.190;2024-01-11T09:20:10;3.33;;;2.10;;
54121;SDS011;40029;58.708;50.190;2024-01-11T09:22:45;4.35;;;1.70;;
54121;SDS011;40029;58.708;50.190;2024-01-11T09:25:16;11.07;;;2.10;;
54121;SDS011;40029;58.708;50.190;2024-01-11T09:27:48;6.47;;;2.27;;
54121;SDS011;40029;58.708;50.190;2024-01-11T09:30:20;4.37;;;2.20;;
54121;SDS011;40029;58.708;50.190;2024-01-11T09:33:10;4.80;;;1.33;;
54121;SDS011;40029;58.708;50.190;2024-01-11T09:35:41;3.90;;;2.13;;
54121;SDS011;40029;58.708;50.190;2024-01-11T09:38:12;8.07;;;3.00;;
54121;SDS011;40029;58.708;50.190;2024-01-11T09:40:43;3.78;;;1.65;;
54121;SDS011;40029;58.708;50.190;2024-01-11T09:43:14;3.67;;;2.03;;
54121;SDS011;40029;58.708;50.190;2024-01-11T09:45:46;9.20;;;3.13;;
54121;SDS011;40029;58.708;50.190;2024-01-11T09:48:20;9.88;;;2.72;;
54121;SDS011;40029;58.708;50.190;2024-01-11T09:50:52;13.47;;;4.37;;
54121;SDS011;40029;58.708;50.190;2024-01-11T09:53:24;6.10;;;2.13;;
54121;SDS011;40029;58.708;50.190;2024-01-11T09:55:57;8.03;;;3.60;;
54121;SDS011;40029;58.708;50.190;2024-01-11T09:58:47;6.93;;;2.53;;
54121;SDS011;40029;58.708;50.190;2024-01-11T10:01:22;6.70;;;2.63;;
54121;SDS011;40029;58.708;50.190;2024-01-11T10:03:54;10.70;;;2.60;;
54121;SDS011;40029;58.708;50.190;2024-01-11T10:06:44;5.43;;;1.80;;
54121;SDS011;40029;58.708;50.190;2024-01-11T10:09:17;5.90;;;1.70;;
54121;SDS011;40029;58.708;50.190;2024-01-11T10:11:48;7.83;;;2.70;;
54121;SDS011;40029;58.708;50.190;2024-01-11T10:14:21;4.50;;;2.85;;
54121;SDS011;40029;58.708;50.190;2024-01-11T10:16:53;5.40;;;1.97;;
54121;SDS011;40029;58.708;50.190;2024-01-11T10:19:26;4.88;;;2.42;;
54121;SDS011;40029;58.708;50.190;2024-01-11T10:21:57;5.00;;;1.63;;
54121;SDS011;40029;58.708;50.190;2024-01-11T10:24:32;3.08;;;1.38;;
54121;SDS011;40029;58.708;50.190;2024-01-11T10:27:03;7.20;;;2.10;;
54121;SDS011;40029;58.708;50.190;2024-01-11T10:29:37;3.83;;;2.30;;
54121;SDS011;40029;58.708;50.190;2024-01-11T10:32:09;4.88;;;2.22;;
54121;SDS011;40029;58.708;50.190;2024-01-11T10:34:59;5.27;;;2.40;;
54121;SDS011;40029;58.708;50.190;2024-01-11T10:37:50;7.25;;;2.25;;
54121;SDS011;40029;58.708;50.190;2024-01-11T10:40:24;11.90;;;1.67;;
54121;SDS011;40029;58.708;50.190;2024-01-11T10:43:14;4.87;;;3.40;;
54121;SDS011;40029;58.708;50.190;2024-01-11T10:46:10;7.57;;;4.83;;
54121;SDS011;40029;58.708;50.190;2024-01-11T10:48:43;10.20;;;4.27;;
54121;SDS011;40029;58.708;50.190;2024-01-11T10:51:15;8.03;;;4.13;;
54121;SDS011;40029;58.708;50.190;2024-01-11T10:53:50;5.15;;;3.33;;
54121;SDS011;40029;58.708;50.190;2024-01-11T10:56:23;12.02;;;2.75;;
54121;SDS011;40029;58.708;50.190;2024-01-11T10:58:56;6.33;;;1.77;;
54121;SDS011;40029;58.708;50.190;2024-01-11T11:01:29;9.17;;;4.27;;
54121;SDS011;40029;58.708;50.190;2024-01-11T11:04:00;10.50;;;6.87;;
54121;SDS011;40029;58.708;50.190;2024-01-11T11:06:52;6.70;;;3.90;;
54121;SDS011;40029;58.708;50.190;2024-01-11T11:09:27;4.13;;;2.37;;
54121;SDS011;40029;58.708;50.190;2024-01-11T11:12:00;5.07;;;2.77;;
54121;SDS011;40029;58.708;50.190;2024-01-11T11:14:33;8.40;;;3.87;;
54121;SDS011;40029;58.708;50.190;2024-01-11T11:17:05;6.67;;;4.13;;
54121;SDS011;40029;58.708;50.190;2024-01-11T11:19:36;12.67;;;5.13;;
54121;SDS011;40029;58.708;50.190;2024-01-11T11:22:33;4.95;;;1.92;;
54121;SDS011;40029;58.708;50.190;2024-01-11T11:25:24;4.57;;;1.88;;
54121;SDS011;40029;58.708;50.190;2024-01-11T11:27:56;8.50;;;2.37;;
54121;SDS011;40029;58.708;50.190;2024-01-11T11:30:29;15.73;;;8.13;;
54121;SDS011;40029;58.708;50.190;2024-01-11T11:33:10;16.93;;;8.27;;
54121;SDS011;40029;58.708;50.190;2024-01-11T11:35:53;10.03;;;4.07;;
54121;SDS011;40029;58.708;50.190;2024-01-11T11:38:34;4.40;;;2.60;;
54121;SDS011;40029;58.708;50.190;2024-01-11T11:41:07;4.38;;;3.65;;
54121;SDS011;40029;58.708;50.190;2024-01-11T11:43:39;3.60;;;2.40;;
54121;SDS011;40029;58.708;50.190;2024-01-11T11:46:10;12.43;;;4.53;;
54121;SDS011;40029;58.708;50.190;2024-01-11T11:48:48;16.67;;;6.20;;
54121;SDS011;40029;58.708;50.190;2024-01-11T11:51:22;13.17;;;4.90;;
54121;SDS011;40029;58.708;50.190;2024-01-11T11:53:54;6.37;;;2.40;;
54121;SDS011;40029;58.708;50.190;2024-01-11T11:56:26;3.97;;;2.40;;
54121;SDS011;40029;58.708;50.190;2024-01-11T11:58:58;9.30;;;3.00;;
54121;SDS011;40029;58.708;50.190;2024-01-11T12:01:32;6.53;;;2.17;;
54121;SDS011;40029;58.708;50.190;2024-01-11T12:04:07;9.50;;;3.92;;
54121;SDS011;40029;58.708;50.190;2024-01-11T12:06:39;7.40;;;2.55;;
54121;SDS011;40029;58.708;50.190;2024-01-11T12:09:28;6.40;;;2.67;;
54121;SDS011;40029;58.708;50.190;2024-01-11T12:11:59;3.20;;;2.08;;
54121;SDS011;40029;58.708;50.190;2024-01-11T12:14:31;8.60;;;3.30;;
54121;SDS011;40029;58.708;50.190;2024-01-11T12:17:02;6.57;;;2.10;;
54121;SDS011;40029;58.708;50.190;2024-01-11T12:19:33;8.53;;;2.60;;
54121;SDS011;40029;58.708;50.190;2024-01-11T12:22:05;3.93;;;1.43;;
54121;SDS011;40029;58.708;50.190;2024-01-11T12:24:36;4.43;;;1.63;;
54121;SDS011;40029;58.708;50.190;2024-01-11T12:27:08;11.60;;;1.47;;
54121;SDS011;40029;58.708;50.190;2024-01-11T12:29:39;8.67;;;2.70;;
54121;SDS011;40029;58.708;50.190;2024-01-11T12:32:29;13.43;;;2.43;;
54121;SDS011;40029;58.708;50.190;2024-01-11T12:35:00;8.60;;;2.93;;
54121;SDS011;40029;58.708;50.190;2024-01-11T12:37:32;9.27;;;3.33;;
54121;SDS011;40029;58.708;50.190;2024-01-11T12:40:04;12.67;;;4.83;;
54121;SDS011;40029;58.708;50.190;2024-01-11T12:42:37;24.10;;;7.63;;
54121;SDS011;40029;58.708;50.190;2024-01-11T12:45:08;19.97;;;5.70;;
54121;SDS011;40029;58.708;50.190;2024-01-11T12:47:39;18.33;;;6.40;;
54121;SDS011;40029;58.708;50.190;2024-01-11T12:50:11;14.80;;;5.53;;
54121;SDS011;40029;58.708;50.190;2024-01-11T12:52:43;11.30;;;5.37;;
54121;SDS011;40029;58.708;50.190;2024-01-11T12:55:18;9.53;;;3.67;;
54121;SDS011;40029;58.708;50.190;2024-01-11T12:57:51;16.70;;;4.63;;
54121;SDS011;40029;58.708;50.190;2024-01-11T13:00:37;18.17;;;5.40;;
54121;SDS011;40029;58.708;50.190;2024-01-11T13:03:10;8.17;;;3.73;;
54121;SDS011;40029;58.708;50.190;2024-01-11T13:05:41;10.93;;;4.27;;
54121;SDS011;40029;58.708;50.190;2024-01-11T13:08:12;21.70;;;5.07;;
54121;SDS011;40029;58.708;50.190;2024-01-11T13:10:43;14.77;;;4.60;;
54121;SDS011;40029;58.708;50.190;2024-01-11T13:13:14;14.37;;;4.60;;
54121;SDS011;40029;58.708;50.190;2024-01-11T13:16:04;13.57;;;4.43;;
54121;SDS011;40029;58.708;50.190;2024-01-11T13:18:36;17.17;;;4.33;;
54121;SDS011;40029;58.708;50.190;2024-01-11T13:21:07;17.17;;;4.40;;
54121;SDS011;40029;58.708;50.190;2024-01-11T13:23:39;7.60;;;2.70;;
54121;SDS011;40029;58.708;50.190;2024-01-11T13:26:10;13.80;;;4.50;;
54121;SDS011;40029;58.708;50.190;2024-01-11T13:28:42;13.37;;;4.50;;
54121;SDS011;40029;58.708;50.190;2024-01-11T13:31:26;26.17;;;5.47;;
54121;SDS011;40029;58.708;50.190;2024-01-11T13:33:57;20.87;;;6.30;;
54121;SDS011;40029;58.708;50.190;2024-01-11T13:36:29;17.23;;;4.60;;
54121;SDS011;40029;58.708;50.190;2024-01-11T13:39:00;6.73;;;2.67;;
54121;SDS011;40029;58.708;50.190;2024-01-11T13:41:31;6.90;;;4.20;;
54121;SDS011;40029;58.708;50.190;2024-01-11T13:44:03;8.57;;;2.83;;
54121;SDS011;40029;58.708;50.190;2024-01-11T13:46:36;10.43;;;3.15;;
54121;SDS011;40029;58.708;50.190;2024-01-11T13:49:07;15.00;;;3.80;;
54121;SDS011;40029;58.708;50.190;2024-01-11T13:51:39;8.13;;;2.40;;
54121;SDS011;40029;58.708;50.190;2024-01-11T13:54:10;5.83;;;2.20;;
54121;SDS011;40029;58.708;50.190;2024-01-11T13:56:41;8.73;;;3.23;;
54121;SDS011;40029;58.708;50.190;2024-01-11T13:59:13;12.53;;;2.40;;
54121;SDS011;40029;58.708;50.190;2024-01-11T14:01:45;5.93;;;2.53;;
54121;SDS011;40029;58.708;50.190;2024-01-11T14:04:16;7.53;;;2.40;;
54121;SDS011;40029;58.708;50.190;2024-01-11T14:06:47;10.17;;;3.13;;
54121;SDS011;40029;58.708;50.190;2024-01-11T14:09:18;8.87;;;2.80;;
54121;SDS011;40029;58.708;50.190;2024-01-11T14:11:50;10.93;;;3.77;;
54121;SDS011;40029;58.708;50.190;2024-01-11T14:14:21;10.43;;;2.80;;
54121;SDS011;40029;58.708;50.190;2024-01-11T14:16:52;33.83;;;7.97;;
54121;SDS011;40029;58.708;50.190;2024-01-11T14:19:23;35.93;;;7.70;;
54121;SDS011;40029;58.708;50.190;2024-01-11T14:22:13;13.47;;;3.20;;
54121;SDS011;40029;58.708;50.190;2024-01-11T14:24:44;17.43;;;4.80;;
54121;SDS011;40029;58.708;50.190;2024-01-11T14:27:16;15.30;;;4.03;;
54121;SDS011;40029;58.708;50.190;2024-01-11T14:29:47;22.40;;;4.57;;
54121;SDS011;40029;58.708;50.190;2024-01-11T14:32:20;19.33;;;5.17;;
54121;SDS011;40029;58.708;50.190;2024-01-11T14:34:51;15.77;;;3.83;;
54121;SDS011;40029;58.708;50.190;2024-01-11T14:37:22;12.63;;;2.87;;
54121;SDS011;40029;58.708;50.190;2024-01-11T14:40:11;10.17;;;4.77;;
54121;SDS011;40029;58.708;50.190;2024-01-11T14:42:43;24.77;;;6.40;;
54121;SDS011;40029;58.708;50.190;2024-01-11T14:45:14;15.70;;;4.37;;
54121;SDS011;40029;58.708;50.190;2024-01-11T14:47:45;19.87;;;5.43;;
54121;SDS011;40029;58.708;50.190;2024-01-11T14:50:16;17.43;;;4.60;;
54121;SDS011;40029;58.708;50.190;2024-01-11T14:53:06;11.17;;;3.73;;
54121;SDS011;40029;58.708;50.190;2024-01-11T14:55:37;14.97;;;6.63;;
54121;SDS011;40029;58.708;50.190;2024-01-11T14:58:08;20.97;;;4.93;;
54121;SDS011;40029;58.708;50.190;2024-01-11T15:00:39;18.90;;;5.10;;
54121;SDS011;40029;58.708;50.190;2024-01-11T15:03:12;17.70;;;4.37;;
54121;SDS011;40029;58.708;50.190;2024-01-11T15:06:02;11.17;;;3.87;;
54121;SDS011;40029;58.708;50.190;2024-01-11T15:08:33;16.03;;;5.10;;
54121;SDS011;40029;58.708;50.190;2024-01-11T15:11:04;21.43;;;5.60;;
54121;SDS011;40029;58.708;50.190;2024-01-11T15:13:36;10.97;;;4.33;;